Time;durP1;ratioP1;P1;durP2;ratioP2;P2;SDS_P1;SDS_P2;PMS_P1;PMS_P2;Temp;Humidity;BMP_temperature;BMP_pressure;BME280_temperature;BME280_humidity;BME280_pressure;Samples;Min_cycle;Max_cycle;Signal;HPM_P1;HPM_P2
2022/07/22 00:01:22;;;;;;;2.83;2.63;;;28.20;94.50;;;;;;5103498;27;20397;-73
2022/07/22 00:03:51;;;;;;;3.97;2.78;;;28.30;94.60;;;;;;5109704;27;20587;-73
2022/07/22 00:06:18;;;;;;;3.22;2.97;;;28.30;94.70;;;;;;5102113;27;20773;-73
2022/07/22 00:08:45;;;;;;;3.10;2.90;;;28.30;94.70;;;;;;5103020;27;20221;-73
2022/07/22 00:11:12;;;;;;;3.30;3.00;;;28.30;94.70;;;;;;5098312;27;20225;-72
2022/07/22 00:13:39;;;;;;;2.80;2.60;;;28.30;94.90;;;;;;5102418;27;20217;-73
2022/07/22 00:16:07;;;;;;;3.10;2.90;;;28.20;94.90;;;;;;5102675;27;20193;-72
2022/07/22 00:18:34;;;;;;;4.80;3.40;;;28.20;94.90;;;;;;5098597;27;20979;-72
2022/07/22 00:21:03;;;;;;;3.00;2.80;;;28.20;95.00;;;;;;5101503;27;20197;-74
2022/07/22 00:23:30;;;;;;;2.97;2.78;;;28.20;95.10;;;;;;5103668;27;20217;-73
2022/07/22 00:25:57;;;;;;;3.28;2.95;;;28.20;95.00;;;;;;5101969;27;20202;-73
2022/07/22 00:28:24;;;;;;;3.03;2.83;;;28.20;95.10;;;;;;5101311;27;20228;-71
2022/07/22 00:30:51;;;;;;;3.33;3.08;;;28.20;95.20;;;;;;5106333;27;20216;-71
2022/07/22 00:33:18;;;;;;;3.28;2.97;;;28.10;95.20;;;;;;5097887;27;20225;-74
2022/07/22 00:35:45;;;;;;;3.50;3.20;;;28.10;95.20;;;;;;5104722;27;20193;-73
2022/07/22 00:38:14;;;;;;;3.70;3.40;;;28.10;95.30;;;;;;5098604;27;20236;-74
2022/07/22 00:40:41;;;;;;;2.70;2.50;;;27.90;95.20;;;;;;5101646;27;20313;-75
2022/07/22 00:43:08;;;;;;;3.72;2.95;;;27.80;95.40;;;;;;5104606;27;20217;-73
2022/07/22 00:45:35;;;;;;;3.42;3.13;;;27.80;95.50;;;;;;5104671;27;20201;-74
2022/07/22 00:48:02;;;;;;;3.88;3.00;;;27.80;95.70;;;;;;5105240;27;20703;-77
2022/07/22 00:50:30;;;;;;;3.25;2.80;;;27.80;95.60;;;;;;5103317;27;20208;-74
2022/07/22 00:52:57;;;;;;;3.25;2.95;;;27.80;95.70;;;;;;5103937;27;20255;-74
2022/07/22 00:55:26;;;;;;;3.45;3.17;;;27.80;95.70;;;;;;5108510;27;20197;-75
2022/07/22 00:57:53;;;;;;;3.30;3.00;;;27.80;95.70;;;;;;5113931;27;20217;-72
2022/07/22 01:00:22;;;;;;;2.92;2.72;;;27.80;95.70;;;;;;5105569;27;20671;-74
2022/07/22 01:02:49;;;;;;;4.03;2.70;;;27.80;95.80;;;;;;5102265;27;20213;-73
2022/07/22 01:05:17;;;;;;;3.25;3.05;;;27.80;95.80;;;;;;5114092;27;20196;-73
2022/07/22 01:07:44;;;;;;;3.45;3.15;;;27.80;96.00;;;;;;5112763;27;20216;-73
2022/07/22 01:10:12;;;;;;;3.58;3.33;;;27.80;96.00;;;;;;5112522;27;20678;-72
2022/07/22 01:12:41;;;;;;;3.40;3.10;;;27.80;96.40;;;;;;5102601;27;20217;-73
2022/07/22 01:15:09;;;;;;;3.08;2.80;;;27.70;96.00;;;;;;5105739;27;20201;-72
2022/07/22 01:17:36;;;;;;;3.33;3.03;;;27.70;96.10;;;;;;5102864;27;20713;-73
2022/07/22 01:20:06;;;;;;;3.58;3.28;;;27.70;96.10;;;;;;5107930;27;20722;-74
2022/07/22 01:22:33;;;;;;;3.75;3.45;;;27.70;96.20;;;;;;5104089;27;20303;-71
2022/07/22 01:25:00;;;;;;;3.35;3.10;;;27.60;96.10;;;;;;5104905;27;20194;-73
2022/07/22 01:27:27;;;;;;;3.38;3.10;;;27.60;96.20;;;;;;5114880;27;20230;-73
2022/07/22 01:29:55;;;;;;;3.55;3.00;;;27.60;96.20;;;;;;5102842;27;20300;-74
2022/07/22 01:32:22;;;;;;;3.33;3.03;;;27.60;96.20;;;;;;5099522;27;20237;-76
2022/07/22 01:34:49;;;;;;;3.13;2.90;;;27.60;96.30;;;;;;5102858;27;20198;-72
2022/07/22 01:37:17;;;;;;;3.13;2.85;;;27.40;96.40;;;;;;5098374;27;20213;-71
2022/07/22 01:39:44;;;;;;;3.50;3.20;;;27.30;96.90;;;;;;5099926;27;20213;-75
2022/07/22 01:42:11;;;;;;;3.42;3.13;;;27.30;96.70;;;;;;5101157;27;20225;-73
2022/07/22 01:44:38;;;;;;;3.13;2.83;;;27.20;96.70;;;;;;5098633;27;20807;-72
2022/07/22 01:47:06;;;;;;;3.40;3.10;;;27.20;96.70;;;;;;5104251;27;20964;-72
2022/07/22 01:49:33;;;;;;;3.47;3.20;;;27.20;96.80;;;;;;5105079;27;20226;-71
2022/07/22 01:52:00;;;;;;;3.10;2.90;;;27.20;96.80;;;;;;5103770;27;20303;-74
2022/07/22 01:54:28;;;;;;;3.30;3.00;;;27.20;96.90;;;;;;5102864;27;20205;-74
2022/07/22 01:56:55;;;;;;;3.72;3.13;;;27.20;97.00;;;;;;5107416;27;20605;-73
2022/07/22 01:59:22;;;;;;;3.45;3.15;;;27.20;97.00;;;;;;5103691;27;20225;-73
2022/07/22 02:01:49;;;;;;;3.15;2.95;;;27.20;97.10;;;;;;5107085;27;20206;-73
2022/07/22 02:04:16;;;;;;;3.20;2.90;;;27.20;97.10;;;;;;5102389;27;20679;-73
2022/07/22 02:06:44;;;;;;;3.75;3.35;;;27.20;97.20;;;;;;5103500;27;20198;-72
2022/07/22 02:09:11;;;;;;;3.42;3.13;;;27.20;97.20;;;;;;5104571;27;20219;-72
2022/07/22 02:11:39;;;;;;;3.05;2.83;;;27.20;97.10;;;;;;5107327;27;20205;-73
2022/07/22 02:14:06;;;;;;;3.88;3.05;;;27.20;97.20;;;;;;5105948;27;20227;-79
2022/07/22 02:16:33;;;;;;;3.03;2.80;;;27.20;97.20;;;;;;5103260;27;20197;-75
2022/07/22 02:19:00;;;;;;;2.70;2.50;;;27.20;97.20;;;;;;5093214;27;20229;-75
2022/07/22 02:21:27;;;;;;;3.45;3.17;;;27.20;97.30;;;;;;5105210;28;20197;-73
2022/07/22 02:23:55;;;;;;;3.03;2.83;;;27.20;97.30;;;;;;5100015;28;20221;-75
2022/07/22 02:26:22;;;;;;;3.80;3.47;;;27.20;97.30;;;;;;5100802;28;20223;-73
2022/07/22 02:28:50;;;;;;;3.10;2.80;;;27.10;97.40;;;;;;5100666;28;20813;-73
2022/07/22 02:31:20;;;;;;;2.92;2.72;;;27.10;97.40;;;;;;5106383;28;20204;-73
2022/07/22 02:33:47;;;;;;;3.03;2.83;;;27.20;97.40;;;;;;5102335;28;20217;-74
2022/07/22 02:36:14;;;;;;;3.38;3.03;;;27.20;97.40;;;;;;5106400;28;20200;-73
2022/07/22 02:38:41;;;;;;;3.30;3.00;;;27.10;97.50;;;;;;5103203;28;20220;-74
2022/07/22 02:41:08;;;;;;;3.30;3.00;;;27.10;97.50;;;;;;5100973;28;20208;-72
2022/07/22 02:43:36;;;;;;;5.10;3.58;;;27.10;97.50;;;;;;5102020;28;20223;-72
2022/07/22 02:46:05;;;;;;;3.42;3.13;;;27.10;97.50;;;;;;5105936;28;20204;-76
2022/07/22 02:48:33;;;;;;;3.70;3.30;;;27.10;97.60;;;;;;5100794;28;20221;-74
2022/07/22 02:51:00;;;;;;;3.40;3.20;;;27.00;97.70;;;;;;5100700;28;20378;-72
2022/07/22 02:53:27;;;;;;;3.35;3.13;;;27.00;97.80;;;;;;5109603;28;20235;-73
2022/07/22 02:55:54;;;;;;;2.90;2.70;;;27.00;97.80;;;;;;5103622;28;20653;-74
2022/07/22 02:58:21;;;;;;;3.25;3.00;;;27.00;97.90;;;;;;5102591;28;20595;-73
2022/07/22 03:00:48;;;;;;;4.65;3.15;;;27.00;97.90;;;;;;5108327;27;20200;-73
2022/07/22 03:03:16;;;;;;;3.70;3.40;;;26.90;97.90;;;;;;5105280;27;20620;-73
2022/07/22 03:05:43;;;;;;;3.47;3.15;;;26.90;98.00;;;;;;5109538;27;20201;-72
2022/07/22 03:08:11;;;;;;;3.92;3.63;;;26.90;98.10;;;;;;5112284;27;20309;-74
2022/07/22 03:10:38;;;;;;;4.07;3.17;;;26.90;98.20;;;;;;5112742;27;20196;-73
2022/07/22 03:13:05;;;;;;;4.80;3.50;;;26.90;98.20;;;;;;5107054;27;20216;-73
2022/07/22 03:15:32;;;;;;;4.57;3.55;;;26.90;98.20;;;;;;5108708;27;21158;-72
2022/07/22 03:17:59;;;;;;;4.22;3.33;;;26.90;98.30;;;;;;5109741;27;20217;-75
2022/07/22 03:20:28;;;;;;;4.20;3.80;;;26.90;98.40;;;;;;5112199;27;20212;-72
2022/07/22 03:22:55;;;;;;;4.40;3.17;;;26.90;98.40;;;;;;5103994;27;20221;-78
2022/07/22 03:25:22;;;;;;;3.55;3.25;;;26.90;98.50;;;;;;5096858;27;20200;-74
2022/07/22 03:27:49;;;;;;;3.63;3.33;;;26.80;98.50;;;;;;5110658;27;20216;-72
2022/07/22 03:30:16;;;;;;;3.97;3.67;;;26.80;98.60;;;;;;5098086;27;20198;-72
2022/07/22 03:32:46;;;;;;;3.72;3.42;;;26.80;98.70;;;;;;5105530;27;20705;-74
2022/07/22 03:35:13;;;;;;;4.07;3.50;;;26.80;98.70;;;;;;5106647;27;20193;-73
2022/07/22 03:37:41;;;;;;;4.28;3.88;;;26.80;98.70;;;;;;5108402;27;20643;-75
2022/07/22 03:40:10;;;;;;;3.58;3.30;;;26.70;98.80;;;;;;5095889;27;20232;-72
2022/07/22 03:42:37;;;;;;;4.55;3.63;;;26.70;98.80;;;;;;5108939;27;20526;-74
2022/07/22 03:45:05;;;;;;;3.78;3.40;;;26.70;98.80;;;;;;5104367;27;20201;-78
2022/07/22 03:47:32;;;;;;;3.97;3.60;;;26.70;98.90;;;;;;5107354;27;20223;-73
2022/07/22 03:49:59;;;;;;;3.95;3.63;;;26.60;98.90;;;;;;5110517;27;20290;-73
2022/07/22 03:52:26;;;;;;;3.78;3.45;;;26.60;99.00;;;;;;5110163;27;20224;-74
2022/07/22 03:54:55;;;;;;;4.13;3.72;;;26.60;99.00;;;;;;5108152;27;20659;-72
2022/07/22 03:57:22;;;;;;;3.45;3.15;;;26.60;99.10;;;;;;5110775;27;20243;-73
2022/07/22 03:59:49;;;;;;;3.75;3.10;;;26.60;99.10;;;;;;5102810;27;20216;-72
2022/07/22 04:02:18;;;;;;;4.18;3.60;;;26.60;99.10;;;;;;5107143;27;20209;-73
2022/07/22 04:04:45;;;;;;;3.65;3.35;;;26.60;99.20;;;;;;5112734;27;20224;-73
2022/07/22 04:07:12;;;;;;;4.22;3.80;;;26.60;99.10;;;;;;5103525;27;20221;-72
2022/07/22 04:09:39;;;;;;;4.75;3.70;;;26.60;99.20;;;;;;5108128;27;20213;-72
2022/07/22 04:12:08;;;;;;;4.50;3.83;;;26.60;99.30;;;;;;5098810;27;20800;-74
2022/07/22 04:14:35;;;;;;;5.53;3.67;;;26.60;99.30;;;;;;5105825;27;20193;-73
2022/07/22 04:17:02;;;;;;;4.13;3.75;;;26.60;99.30;;;;;;5098261;27;20926;-73
2022/07/22 04:19:29;;;;;;;4.13;3.72;;;26.60;99.40;;;;;;5102274;27;20220;-73
2022/07/22 04:21:56;;;;;;;4.78;3.70;;;26.60;99.40;;;;;;5103094;27;20196;-72
2022/07/22 04:24:23;;;;;;;5.10;4.60;;;26.60;99.50;;;;;;5101609;27;20212;-72
2022/07/22 04:26:51;;;;;;;3.50;3.30;;;26.60;99.60;;;;;;5108136;27;20205;-72
2022/07/22 04:29:19;;;;;;;4.07;3.63;;;26.50;99.70;;;;;;5101209;27;20217;-73
2022/07/22 04:31:46;;;;;;;5.13;3.78;;;26.50;99.80;;;;;;5102618;27;20201;-73
2022/07/22 04:34:13;;;;;;;4.43;4.00;;;26.50;99.80;;;;;;5100338;27;20201;-72
2022/07/22 04:36:40;;;;;;;4.05;3.75;;;26.50;99.80;;;;;;5100488;27;20193;-73
2022/07/22 04:39:07;;;;;;;4.00;3.67;;;26.50;99.90;;;;;;5095438;28;20225;-72
2022/07/22 04:41:34;;;;;;;3.85;3.50;;;26.60;99.90;;;;;;5102590;28;20185;-71
2022/07/22 04:44:01;;;;;;;4.47;4.07;;;26.60;99.90;;;;;;5102998;27;20221;-72
2022/07/22 04:46:30;;;;;;;4.22;3.67;;;26.60;99.90;;;;;;5102263;28;20205;-72
2022/07/22 04:48:57;;;;;;;3.72;3.42;;;26.60;99.90;;;;;;5099897;28;20269;-70
2022/07/22 04:51:24;;;;;;;3.80;3.50;;;26.60;99.90;;;;;;5099882;28;20204;-71
2022/07/22 04:53:51;;;;;;;3.40;3.10;;;26.60;99.90;;;;;;5102820;28;20216;-73
2022/07/22 04:56:18;;;;;;;3.33;3.10;;;26.60;99.90;;;;;;5104459;28;20189;-72
2022/07/22 04:58:45;;;;;;;3.72;3.42;;;26.60;99.90;;;;;;5101153;27;20229;-72
2022/07/22 05:01:12;;;;;;;3.50;3.20;;;26.70;99.90;;;;;;5093967;28;20757;-72
2022/07/22 05:03:42;;;;;;;2.80;2.60;;;26.80;99.90;;;;;;5096793;28;20216;-72
2022/07/22 05:06:09;;;;;;;4.43;3.67;;;26.90;99.90;;;;;;5102591;28;20204;-73
2022/07/22 05:08:36;;;;;;;4.07;3.70;;;27.00;99.90;;;;;;5100559;28;20212;-74
2022/07/22 05:11:04;;;;;;;4.03;3.63;;;27.10;99.90;;;;;;5100847;27;20201;-73
2022/07/22 05:13:31;;;;;;;4.05;3.72;;;27.10;99.90;;;;;;5100783;28;20214;-73
2022/07/22 05:15:58;;;;;;;3.70;3.40;;;27.20;99.90;;;;;;5097314;28;20655;-73
2022/07/22 05:18:25;;;;;;;3.70;3.40;;;27.20;99.90;;;;;;5098526;27;20733;-73
2022/07/22 05:20:53;;;;;;;4.00;3.70;;;27.20;99.90;;;;;;5097432;28;20205;-70
2022/07/22 05:23:20;;;;;;;3.70;3.50;;;27.20;99.90;;;;;;5099166;27;20224;-72
2022/07/22 05:25:47;;;;;;;4.00;3.70;;;27.20;99.90;;;;;;5101963;27;20192;-72
2022/07/22 05:28:15;;;;;;;4.65;4.18;;;27.30;99.90;;;;;;5096742;28;20237;-72
2022/07/22 05:30:42;;;;;;;5.20;3.88;;;27.30;99.90;;;;;;5098869;28;20205;-71
2022/07/22 05:33:09;;;;;;;4.65;4.25;;;27.20;99.90;;;;;;5100992;27;20217;-71
2022/07/22 05:35:36;;;;;;;4.90;4.30;;;27.20;99.90;;;;;;5101128;28;20234;-73
2022/07/22 05:38:05;;;;;;;4.80;4.40;;;27.20;99.90;;;;;;5089594;28;20618;-74
2022/07/22 05:40:33;;;;;;;4.82;4.30;;;27.20;99.90;;;;;;5093965;27;20201;-71
2022/07/22 05:43:00;;;;;;;6.00;4.68;;;27.30;99.90;;;;;;5099355;27;20625;-71
2022/07/22 05:45:27;;;;;;;5.65;4.70;;;27.40;99.90;;;;;;5097430;28;20196;-73
2022/07/22 05:47:54;;;;;;;4.85;4.38;;;27.50;99.90;;;;;;5092445;27;20209;-72
2022/07/22 05:50:21;;;;;;;5.10;4.65;;;27.60;99.90;;;;;;5099175;27;20193;-72
2022/07/22 05:52:48;;;;;;;5.65;5.15;;;27.60;99.90;;;;;;5088094;27;20233;-72
2022/07/22 05:55:16;;;;;;;5.20;4.70;;;27.60;99.90;;;;;;5091480;28;20200;-72
2022/07/22 05:57:43;;;;;;;5.25;4.80;;;27.60;99.90;;;;;;5091790;27;20588;-71
2022/07/22 06:00:11;;;;;;;5.50;5.10;;;27.60;99.90;;;;;;5085869;28;20576;-73
2022/07/22 06:02:39;;;;;;;5.97;4.88;;;27.60;99.90;;;;;;5095653;28;20262;-72
2022/07/22 06:05:06;;;;;;;5.25;4.80;;;27.60;99.90;;;;;;5095143;28;20198;-72
2022/07/22 06:07:33;;;;;;;4.82;4.43;;;27.80;99.90;;;;;;5090927;28;20216;-73
2022/07/22 06:10:00;;;;;;;5.28;4.63;;;28.00;99.90;;;;;;5091048;28;20409;-74
2022/07/22 06:12:29;;;;;;;5.25;4.85;;;28.20;99.90;;;;;;5090199;28;20231;-74
2022/07/22 06:14:56;;;;;;;5.93;5.43;;;28.20;99.90;;;;;;5089877;27;20209;-74
2022/07/22 06:17:23;;;;;;;6.22;5.50;;;28.30;99.90;;;;;;5091464;28;20290;-74
2022/07/22 06:19:50;;;;;;;6.25;5.65;;;28.20;99.90;;;;;;5090455;28;20213;-74
2022/07/22 06:22:17;;;;;;;6.35;5.65;;;28.20;99.90;;;;;;5092470;28;20228;-74
2022/07/22 06:24:45;;;;;;;6.72;5.70;;;28.20;99.90;;;;;;5088970;28;20185;-75
2022/07/22 06:27:12;;;;;;;5.43;5.03;;;28.20;99.90;;;;;;5090086;28;20375;-75
2022/07/22 06:29:41;;;;;;;6.13;5.60;;;28.20;99.90;;;;;;5091402;28;20816;-74
2022/07/22 06:32:08;;;;;;;5.53;5.07;;;28.20;99.90;;;;;;5086370;28;20281;-75
2022/07/22 06:34:35;;;;;;;5.88;5.38;;;28.20;99.90;;;;;;5091459;28;20220;-74
2022/07/22 06:37:03;;;;;;;8.80;5.82;;;28.30;99.90;;;;;;5094504;28;20232;-74
2022/07/22 06:39:30;;;;;;;7.70;6.25;;;28.40;99.90;;;;;;5093032;28;20216;-74
2022/07/22 06:41:57;;;;;;;8.45;6.20;;;28.50;99.90;;;;;;5098679;28;20227;-75
2022/07/22 06:44:24;;;;;;;8.00;6.30;;;28.40;99.90;;;;;;5091565;28;20193;-73
2022/07/22 06:46:53;;;;;;;6.20;5.60;;;28.40;99.90;;;;;;5093726;28;20201;-73
2022/07/22 06:49:20;;;;;;;7.47;6.63;;;28.40;99.90;;;;;;5093289;28;20209;-73
2022/07/22 06:51:47;;;;;;;7.90;6.53;;;28.40;99.90;;;;;;5094930;28;20204;-75
2022/07/22 06:54:14;;;;;;;6.05;5.55;;;28.60;99.90;;;;;;5090725;28;20225;-74
2022/07/22 06:56:41;;;;;;;6.25;5.63;;;28.60;99.90;;;;;;5094481;28;20189;-73
2022/07/22 06:59:08;;;;;;;6.75;6.15;;;28.70;99.90;;;;;;5075034;28;20232;-73
2022/07/22 07:01:35;;;;;;;7.15;6.45;;;28.80;99.90;;;;;;5081498;28;20192;-74
2022/07/22 07:04:03;;;;;;;7.53;6.82;;;29.00;99.90;;;;;;5077295;28;20217;-74
2022/07/22 07:06:30;;;;;;;7.03;6.50;;;29.00;99.90;;;;;;5078317;28;20197;-74
2022/07/22 07:08:58;;;;;;;7.30;6.70;;;29.20;99.90;;;;;;5070423;28;20244;-75
2022/07/22 07:11:25;;;;;;;7.20;6.55;;;29.30;99.90;;;;;;5077163;28;20221;-72
2022/07/22 07:13:53;;;;;;;7.35;6.70;;;29.50;99.90;;;;;;5080240;28;20699;-76
2022/07/22 07:16:20;;;;;;;6.57;6.07;;;29.60;99.90;;;;;;5079199;28;22453;-73
2022/07/22 07:18:47;;;;;;;6.70;6.10;;;29.60;99.90;;;;;;5080579;28;20226;-74
2022/07/22 07:21:16;;;;;;;6.40;5.90;;;29.60;99.90;;;;;;5075396;28;20217;-75
2022/07/22 07:23:43;;;;;;;7.07;6.47;;;29.80;99.90;;;;;;5066883;28;20583;-73
2022/07/22 07:26:10;;;;;;;9.05;6.70;;;29.90;99.90;;;;;;5072391;28;20201;-73
2022/07/22 07:28:37;;;;;;;6.20;5.70;;;30.00;99.70;;;;;;5071001;28;20233;-75
2022/07/22 07:31:04;;;;;;;7.57;6.85;;;30.00;99.60;;;;;;5076714;28;20201;-74
2022/07/22 07:33:31;;;;;;;7.63;6.93;;;30.10;99.70;;;;;;5073979;28;20218;-73
2022/07/22 07:35:59;;;;;;;8.05;7.45;;;30.10;99.50;;;;;;5073462;28;20202;-74
2022/07/22 07:38:27;;;;;;;7.50;6.90;;;30.20;99.20;;;;;;5070720;28;20225;-74
2022/07/22 07:40:54;;;;;;;7.88;7.00;;;30.20;98.90;;;;;;5086104;28;20202;-72
2022/07/22 07:43:21;;;;;;;7.05;6.43;;;30.20;99.10;;;;;;5075431;28;20218;-74
2022/07/22 07:45:48;;;;;;;7.30;6.70;;;30.30;99.30;;;;;;5077917;28;20209;-75
2022/07/22 07:48:15;;;;;;;7.32;6.63;;;30.40;99.40;;;;;;5074795;28;20221;-74
2022/07/22 07:50:42;;;;;;;7.82;7.13;;;30.40;99.10;;;;;;5077473;28;20880;-75
2022/07/22 07:53:10;;;;;;;7.07;6.55;;;30.50;99.10;;;;;;5077780;28;20224;-76
2022/07/22 07:55:39;;;;;;;7.85;7.25;;;30.60;99.10;;;;;;5073877;28;20201;-75
2022/07/22 07:58:06;;;;;;;7.88;7.07;;;30.80;99.00;;;;;;5088591;28;20702;-75
2022/07/22 08:00:34;;;;;;;8.05;7.30;;;30.90;99.10;;;;;;5090530;27;20216;-73
2022/07/22 08:03:02;;;;;;;8.40;7.60;;;31.00;99.10;;;;;;5091777;28;20221;-73
2022/07/22 08:05:29;;;;;;;8.05;7.45;;;31.10;99.00;;;;;;5098352;27;20208;-73
2022/07/22 08:07:56;;;;;;;7.97;7.35;;;31.00;99.10;;;;;;5090886;27;20228;-73
2022/07/22 08:10:24;;;;;;;8.50;7.32;;;31.10;99.00;;;;;;5097119;27;20201;-73
2022/07/22 08:12:53;;;;;;;8.05;7.35;;;31.30;98.80;;;;;;5106131;27;20710;-73
2022/07/22 08:15:20;;;;;;;7.93;7.15;;;31.40;98.70;;;;;;5105960;27;20229;-73
2022/07/22 08:17:47;;;;;;;7.78;7.07;;;31.40;98.70;;;;;;5104636;27;20596;-73
2022/07/22 08:20:14;;;;;;;7.43;6.55;;;31.40;98.00;;;;;;5102137;27;20204;-73
2022/07/22 08:22:41;;;;;;;8.40;7.15;;;31.50;98.10;;;;;;5092998;27;20627;-74
2022/07/22 08:25:09;;;;;;;9.07;8.18;;;31.80;98.50;;;;;;5097574;27;20200;-72
2022/07/22 08:27:36;;;;;;;8.43;7.63;;;31.90;98.20;;;;;;5104915;27;20212;-73
2022/07/22 08:30:06;;;;;;;7.78;7.03;;;31.80;98.20;;;;;;5100003;27;20277;-73
2022/07/22 08:32:33;;;;;;;7.70;7.00;;;31.70;98.40;;;;;;5099504;27;20243;-72
2022/07/22 08:35:00;;;;;;;8.23;7.63;;;31.70;98.30;;;;;;5098495;27;20213;-72
2022/07/22 08:37:27;;;;;;;7.75;6.97;;;31.70;98.00;;;;;;5105521;27;20217;-72
2022/07/22 08:39:54;;;;;;;8.57;7.80;;;31.60;98.10;;;;;;5095096;27;20209;-73
2022/07/22 08:42:22;;;;;;;7.75;7.10;;;31.80;98.30;;;;;;5100387;27;20225;-73
2022/07/22 08:44:49;;;;;;;8.35;7.65;;;32.00;97.90;;;;;;5100122;27;20201;-73
2022/07/22 08:47:22;;;;;;;7.20;6.60;;;32.20;97.80;;;;;;5096891;27;20263;-73
2022/07/22 08:49:49;;;;;;;7.78;7.18;;;32.30;97.40;;;;;;5099010;28;20718;-72
2022/07/22 08:52:16;;;;;;;7.90;7.13;;;32.30;97.40;;;;;;5091104;27;20221;-72
2022/07/22 08:54:43;;;;;;;7.72;7.03;;;32.40;97.00;;;;;;5080462;28;20221;-73
2022/07/22 08:57:10;;;;;;;7.93;7.22;;;32.60;97.20;;;;;;5078265;28;20699;-73
2022/07/22 08:59:51;;;;;;;8.88;7.80;;;32.70;96.90;;;;;;5075371;28;20236;-73
2022/07/22 09:02:20;;;;;;;8.50;7.60;;;32.70;96.70;;;;;;5071841;28;20241;-74
2022/07/22 09:04:55;;;;;;;9.25;8.10;;;32.60;96.70;;;;;;5077133;28;20226;-73
2022/07/22 09:07:28;;;;;;;8.35;7.65;;;32.70;96.90;;;;;;5073529;28;20222;-74
2022/07/22 09:09:56;;;;;;;8.13;7.40;;;32.80;96.50;;;;;;5073386;28;20218;-71
2022/07/22 09:12:23;;;;;;;8.25;7.55;;;32.90;96.70;;;;;;5072345;28;20978;-73
2022/07/22 09:14:51;;;;;;;8.13;7.53;;;33.10;96.60;;;;;;5071003;28;20273;-73
2022/07/22 09:17:31;;;;;;;7.70;7.10;;;33.10;96.40;;;;;;5068409;28;20217;-74
2022/07/22 09:20:00;;;;;;;9.55;7.20;;;33.20;96.30;;;;;;5071303;28;20214;-75
2022/07/22 09:22:35;;;;;;;7.93;7.22;;;33.20;96.20;;;;;;5070969;28;20221;-74
2022/07/22 09:25:18;;;;;;;8.48;7.68;;;33.60;96.30;;;;;;5071275;28;20197;-73
2022/07/22 09:27:45;;;;;;;8.38;7.68;;;33.90;95.40;;;;;;5068168;28;20264;-74
2022/07/22 09:30:14;;;;;;;7.68;7.07;;;33.70;95.40;;;;;;5070224;28;20217;-74
2022/07/22 09:32:44;;;;;;;8.30;7.53;;;33.70;95.30;;;;;;5066790;28;20237;-74
2022/07/22 09:35:13;;;;;;;7.07;6.47;;;33.70;95.10;;;;;;5070353;28;20217;-73
2022/07/22 09:37:49;;;;;;;7.90;7.20;;;33.60;95.10;;;;;;5064981;28;20226;-74
2022/07/22 09:40:19;;;;;;;7.90;7.18;;;33.70;95.00;;;;;;5073062;28;20293;-74
2022/07/22 09:42:51;;;;;;;7.70;7.00;;;33.70;94.60;;;;;;5071182;28;20225;-72
2022/07/22 09:45:19;;;;;;;7.88;7.07;;;33.80;94.20;;;;;;5068029;28;20230;-74
2022/07/22 09:47:49;;;;;;;7.70;6.85;;;33.80;94.20;;;;;;5069043;28;20221;-74
2022/07/22 09:50:23;;;;;;;8.05;6.32;;;33.80;94.10;;;;;;5070030;28;20194;-74
2022/07/22 09:52:53;;;;;;;6.28;5.78;;;33.90;94.10;;;;;;5075042;28;20221;-74
2022/07/22 09:55:21;;;;;;;6.78;6.03;;;34.00;93.70;;;;;;5079949;28;20225;-73
2022/07/22 09:57:49;;;;;;;7.47;6.40;;;34.00;93.60;;;;;;5082543;28;20227;-73
2022/07/22 10:00:20;;;;;;;6.75;6.20;;;34.10;93.70;;;;;;5080557;28;20201;-73
2022/07/22 10:02:50;;;;;;;7.28;6.57;;;34.00;92.70;;;;;;5076121;28;20715;-72
2022/07/22 10:05:19;;;;;;;6.85;6.25;;;34.00;93.00;;;;;;5076310;28;20228;-72
2022/07/22 10:07:47;;;;;;;7.68;6.28;;;34.20;93.10;;;;;;5072649;28;20718;-73
2022/07/22 10:10:17;;;;;;;6.22;5.82;;;34.50;92.70;;;;;;5077440;28;20286;-72
2022/07/22 10:12:46;;;;;;;6.32;5.82;;;34.70;92.50;;;;;;5078285;28;20228;-73
2022/07/22 10:15:13;;;;;;;6.75;6.07;;;34.70;92.70;;;;;;5083050;28;20217;-72
2022/07/22 10:17:43;;;;;;;9.32;6.28;;;34.80;92.30;;;;;;5074703;28;20210;-72
2022/07/22 10:20:13;;;;;;;6.40;5.80;;;34.70;92.30;;;;;;5075143;28;20222;-73
2022/07/22 10:22:57;;;;;;;8.07;5.85;;;34.40;92.20;;;;;;5077209;28;20218;-71
2022/07/22 10:25:26;;;;;;;5.88;5.38;;;34.50;92.20;;;;;;5083463;28;20197;-73
2022/07/22 10:27:56;;;;;;;6.28;5.72;;;34.70;92.40;;;;;;5080942;28;20218;-73
2022/07/22 10:30:25;;;;;;;6.35;5.80;;;34.70;92.40;;;;;;5079824;28;20209;-73
2022/07/22 10:33:08;;;;;;;6.10;5.50;;;34.90;92.40;;;;;;5082796;28;20216;-73
2022/07/22 10:35:39;;;;;;;5.97;5.20;;;35.30;91.90;;;;;;5083841;28;20212;-73
2022/07/22 10:38:08;;;;;;;6.05;5.55;;;35.40;91.90;;;;;;5080463;28;20209;-73
2022/07/22 10:40:53;;;;;;;6.40;5.85;;;35.80;91.70;;;;;;5087211;28;20190;-73
2022/07/22 10:43:21;;;;;;;6.13;5.57;;;35.80;91.10;;;;;;5077824;28;20300;-73
2022/07/22 10:45:51;;;;;;;5.75;5.25;;;35.80;91.40;;;;;;5079097;28;20561;-75
2022/07/22 10:48:21;;;;;;;6.00;5.47;;;35.80;91.00;;;;;;5074385;28;20221;-73
2022/07/22 10:50:56;;;;;;;6.68;5.97;;;35.90;91.30;;;;;;5085774;28;20208;-74
2022/07/22 10:53:25;;;;;;;6.55;6.00;;;35.80;91.40;;;;;;5080813;28;20228;-74
2022/07/22 10:56:08;;;;;;;6.13;5.55;;;35.50;91.20;;;;;;5085564;28;20217;-73
2022/07/22 10:58:51;;;;;;;6.10;5.00;;;35.50;91.50;;;;;;5079147;28;20225;-73
2022/07/22 11:01:21;;;;;;;5.90;5.30;;;35.40;91.20;;;;;;5079280;28;20202;-74
2022/07/22 11:03:49;;;;;;;5.95;4.93;;;35.50;90.70;;;;;;5079569;28;20239;-73
2022/07/22 11:06:27;;;;;;;6.85;5.22;;;35.70;90.60;;;;;;5079271;28;20204;-74
2022/07/22 11:08:56;;;;;;;5.30;4.80;;;35.90;89.30;;;;;;5076694;28;20229;-74
2022/07/22 11:11:42;;;;;;;5.22;4.60;;;36.20;89.70;;;;;;5083207;28;20569;-73
2022/07/22 11:14:19;;;;;;;5.68;5.10;;;36.40;90.20;;;;;;5085152;28;20752;-74
2022/07/22 11:16:48;;;;;;;4.80;4.40;;;36.50;88.60;;;;;;5082293;28;20904;-75
2022/07/22 11:19:20;;;;;;;5.22;4.80;;;36.60;89.00;;;;;;5084476;28;20223;-75
2022/07/22 11:21:51;;;;;;;7.57;5.10;;;36.60;87.60;;;;;;5074216;28;20276;-72
2022/07/22 11:24:21;;;;;;;7.38;4.55;;;36.70;86.90;;;;;;5087590;28;20224;-76
2022/07/22 11:26:50;;;;;;;5.18;4.78;;;37.00;85.50;;;;;;5093142;28;20200;-73
2022/07/22 11:29:19;;;;;;;7.60;4.53;;;36.90;83.40;;;;;;5078339;28;20288;-74
2022/07/22 11:31:47;;;;;;;9.38;4.90;;;36.80;82.10;;;;;;5078833;28;20197;-70
2022/07/22 11:34:17;;;;;;;6.68;4.38;;;36.80;80.40;;;;;;5078584;28;20710;-72
2022/07/22 11:36:46;;;;;;;5.20;4.68;;;36.70;80.60;;;;;;5080878;28;20225;-72
2022/07/22 11:39:20;;;;;;;6.03;4.50;;;36.70;80.00;;;;;;5078186;28;20221;-72
2022/07/22 11:41:48;;;;;;;5.38;4.25;;;36.70;78.30;;;;;;5070559;28;20285;-71
2022/07/22 11:44:19;;;;;;;4.40;4.05;;;36.80;79.40;;;;;;5081634;28;20194;-71
2022/07/22 11:46:48;;;;;;;4.28;3.97;;;36.90;78.10;;;;;;5083066;28;20657;-72
2022/07/22 11:49:16;;;;;;;4.75;4.30;;;36.90;78.60;;;;;;5075166;28;20218;-72
2022/07/22 11:51:44;;;;;;;4.80;4.30;;;37.20;78.50;;;;;;5082289;28;20644;-72
2022/07/22 11:54:13;;;;;;;4.97;4.07;;;37.10;77.40;;;;;;5076333;28;20201;-71
2022/07/22 11:56:42;;;;;;;5.50;4.60;;;37.20;77.30;;;;;;5088549;28;20659;-73
2022/07/22 11:59:14;;;;;;;7.32;4.47;;;37.10;76.80;;;;;;5083905;28;20284;-73
2022/07/22 12:01:42;;;;;;;6.90;4.53;;;37.20;76.30;;;;;;5084148;28;20200;-72
2022/07/22 12:04:12;;;;;;;4.93;4.53;;;37.30;76.50;;;;;;5087786;28;20910;-72
2022/07/22 12:06:42;;;;;;;4.60;4.20;;;37.30;76.40;;;;;;5090511;28;20251;-72
2022/07/22 12:09:12;;;;;;;6.97;4.57;;;37.30;76.70;;;;;;5109819;27;20783;-71
2022/07/22 12:11:44;;;;;;;6.10;4.30;;;37.40;75.50;;;;;;5106803;27;20201;-71
2022/07/22 12:14:13;;;;;;;4.57;4.18;;;37.40;75.50;;;;;;5112888;27;20222;-71
2022/07/22 12:16:42;;;;;;;5.35;4.18;;;37.60;75.70;;;;;;5113131;27;20201;-72
2022/07/22 12:19:12;;;;;;;5.18;4.25;;;37.60;75.30;;;;;;5108454;28;20225;-71
2022/07/22 12:21:55;;;;;;;4.47;4.18;;;37.40;75.00;;;;;;5108334;28;20283;-72
2022/07/22 12:24:31;;;;;;;5.70;4.32;;;37.40;74.30;;;;;;5108978;28;20668;-72
2022/07/22 12:27:01;;;;;;;5.05;4.50;;;37.40;75.00;;;;;;5108906;28;20192;-72
2022/07/22 12:29:31;;;;;;;4.75;4.35;;;37.30;74.20;;;;;;5090071;28;20279;-71
2022/07/22 12:32:01;;;;;;;4.75;4.35;;;37.20;75.00;;;;;;5086615;28;20610;-71
2022/07/22 12:34:36;;;;;;;4.85;4.45;;;37.30;74.30;;;;;;5083885;28;20234;-72
2022/07/22 12:37:15;;;;;;;5.38;3.90;;;37.40;73.40;;;;;;5082095;28;20225;-71
2022/07/22 12:39:54;;;;;;;4.68;4.28;;;37.50;73.60;;;;;;5075363;28;20214;-71
2022/07/22 12:42:26;;;;;;;5.80;4.65;;;37.60;73.30;;;;;;5085093;27;20220;-73
2022/07/22 12:44:59;;;;;;;4.88;4.38;;;37.50;74.10;;;;;;5116186;27;20257;-73
2022/07/22 12:47:49;;;;;;;4.53;4.03;;;37.50;73.80;;;;;;5111127;27;20251;-70
2022/07/22 12:50:18;;;;;;;4.82;4.28;;;37.60;73.50;;;;;;5109931;27;20880;-71
2022/07/22 12:52:46;;;;;;;4.32;3.92;;;37.40;74.00;;;;;;5104595;27;20312;-71
2022/07/22 12:55:14;;;;;;;4.18;3.88;;;37.40;74.40;;;;;;5109885;27;20220;-72